sensor_id;sensor_type;location;lat;lon;timestamp;P1;durP1;ratioP1;P2;durP2;ratioP2
79308;SDS011;68767;53.078;7.386;2023-08-12T00:00:21;38.20;;;17.38;;
79308;SDS011;68767;53.078;7.386;2023-08-12T00:02:48;39.03;;;18.20;;
79308;SDS011;68767;53.078;7.386;2023-08-12T00:05:15;36.13;;;19.45;;
79308;SDS011;68767;53.078;7.386;2023-08-12T00:07:42;32.33;;;20.15;;
79308;SDS011;68767;53.078;7.386;2023-08-12T00:10:10;38.05;;;19.35;;
79308;SDS011;68767;53.078;7.386;2023-08-12T00:12:37;34.75;;;17.42;;
79308;SDS011;68767;53.078;7.386;2023-08-12T00:15:05;37.22;;;20.02;;
79308;SDS011;68767;53.078;7.386;2023-08-12T00:17:34;39.50;;;20.77;;
79308;SDS011;68767;53.078;7.386;2023-08-12T00:20:04;39.20;;;19.45;;
79308;SDS011;68767;53.078;7.386;2023-08-12T00:22:32;49.38;;;24.23;;
79308;SDS011;68767;53.078;7.386;2023-08-12T00:24:59;43.38;;;20.35;;
79308;SDS011;68767;53.078;7.386;2023-08-12T00:27:26;39.47;;;17.67;;
79308;SDS011;68767;53.078;7.386;2023-08-12T00:29:53;37.85;;;18.05;;
79308;SDS011;68767;53.078;7.386;2023-08-12T00:32:20;33.97;;;15.55;;
79308;SDS011;68767;53.078;7.386;2023-08-12T00:34:47;31.52;;;17.52;;
79308;SDS011;68767;53.078;7.386;2023-08-12T00:37:14;30.75;;;16.48;;
79308;SDS011;68767;53.078;7.386;2023-08-12T00:39:41;25.45;;;13.98;;
79308;SDS011;68767;53.078;7.386;2023-08-12T00:42:08;36.00;;;15.07;;
79308;SDS011;68767;53.078;7.386;2023-08-12T00:44:35;25.02;;;13.80;;
79308;SDS011;68767;53.078;7.386;2023-08-12T00:47:02;28.75;;;12.65;;
79308;SDS011;68767;53.078;7.386;2023-08-12T00:49:29;24.48;;;11.32;;
79308;SDS011;68767;53.078;7.386;2023-08-12T00:51:59;23.80;;;12.02;;
79308;SDS011;68767;53.078;7.386;2023-08-12T00:54:26;22.67;;;10.55;;
79308;SDS011;68767;53.078;7.386;2023-08-12T00:56:54;24.00;;;9.70;;
79308;SDS011;68767;53.078;7.386;2023-08-12T00:59:21;24.48;;;10.57;;
79308;SDS011;68767;53.078;7.386;2023-08-12T01:01:49;17.33;;;9.63;;
79308;SDS011;68767;53.078;7.386;2023-08-12T01:04:16;18.35;;;9.15;;
79308;SDS011;68767;53.078;7.386;2023-08-12T01:06:43;17.60;;;9.07;;
79308;SDS011;68767;53.078;7.386;2023-08-12T01:09:11;23.38;;;9.63;;
79308;SDS011;68767;53.078;7.386;2023-08-12T01:14:27;20.42;;;8.70;;
79308;SDS011;68767;53.078;7.386;2023-08-12T01:17:02;18.27;;;8.00;;
79308;SDS011;68767;53.078;7.386;2023-08-12T01:19:34;19.40;;;7.53;;
79308;SDS011;68767;53.078;7.386;2023-08-12T01:22:03;18.20;;;8.20;;
79308;SDS011;68767;53.078;7.386;2023-08-12T01:27:03;12.10;;;6.32;;
79308;SDS011;68767;53.078;7.386;2023-08-12T01:29:32;14.30;;;7.53;;
79308;SDS011;68767;53.078;7.386;2023-08-12T01:32:45;20.60;;;9.57;;
79308;SDS011;68767;53.078;7.386;2023-08-12T01:37:50;17.55;;;7.57;;
79308;SDS011;68767;53.078;7.386;2023-08-12T01:40:20;18.13;;;6.80;;
79308;SDS011;68767;53.078;7.386;2023-08-12T01:42:48;16.08;;;8.40;;
79308;SDS011;68767;53.078;7.386;2023-08-12T01:45:16;18.38;;;7.32;;
79308;SDS011;68767;53.078;7.386;2023-08-12T01:47:45;14.15;;;7.00;;
79308;SDS011;68767;53.078;7.386;2023-08-12T01:50:12;21.48;;;8.75;;
79308;SDS011;68767;53.078;7.386;2023-08-12T01:52:39;12.80;;;6.95;;
79308;SDS011;68767;53.078;7.386;2023-08-12T01:55:07;15.85;;;7.38;;
79308;SDS011;68767;53.078;7.386;2023-08-12T01:57:34;14.25;;;6.97;;
79308;SDS011;68767;53.078;7.386;2023-08-12T02:00:03;18.42;;;8.52;;
79308;SDS011;68767;53.078;7.386;2023-08-12T02:02:41;17.80;;;7.40;;
79308;SDS011;68767;53.078;7.386;2023-08-12T02:05:09;19.08;;;7.63;;
79308;SDS011;68767;53.078;7.386;2023-08-12T02:07:36;15.95;;;7.47;;
79308;SDS011;68767;53.078;7.386;2023-08-12T02:10:03;16.45;;;8.00;;
79308;SDS011;68767;53.078;7.386;2023-08-12T02:12:30;17.65;;;7.57;;
79308;SDS011;68767;53.078;7.386;2023-08-12T02:14:57;16.00;;;7.90;;
79308;SDS011;68767;53.078;7.386;2023-08-12T02:17:24;15.23;;;7.20;;
79308;SDS011;68767;53.078;7.386;2023-08-12T02:19:51;17.15;;;7.97;;
79308;SDS011;68767;53.078;7.386;2023-08-12T02:22:18;14.68;;;7.40;;
79308;SDS011;68767;53.078;7.386;2023-08-12T02:24:45;16.13;;;7.53;;
79308;SDS011;68767;53.078;7.386;2023-08-12T02:27:13;14.70;;;7.80;;
79308;SDS011;68767;53.078;7.386;2023-08-12T02:29:40;15.55;;;7.85;;
79308;SDS011;68767;53.078;7.386;2023-08-12T02:32:07;15.00;;;7.65;;
79308;SDS011;68767;53.078;7.386;2023-08-12T02:34:34;16.60;;;7.07;;
79308;SDS011;68767;53.078;7.386;2023-08-12T02:37:01;14.35;;;8.00;;
79308;SDS011;68767;53.078;7.386;2023-08-12T02:39:29;17.17;;;7.10;;
79308;SDS011;68767;53.078;7.386;2023-08-12T02:41:56;11.05;;;6.78;;
79308;SDS011;68767;53.078;7.386;2023-08-12T02:44:23;12.35;;;6.70;;
79308;SDS011;68767;53.078;7.386;2023-08-12T02:46:50;23.85;;;7.72;;
79308;SDS011;68767;53.078;7.386;2023-08-12T02:49:17;15.73;;;7.95;;
79308;SDS011;68767;53.078;7.386;2023-08-12T02:51:44;16.63;;;6.82;;
79308;SDS011;68767;53.078;7.386;2023-08-12T02:54:11;18.65;;;7.93;;
79308;SDS011;68767;53.078;7.386;2023-08-12T02:56:38;15.52;;;7.00;;
79308;SDS011;68767;53.078;7.386;2023-08-12T02:59:05;16.00;;;7.95;;
79308;SDS011;68767;53.078;7.386;2023-08-12T03:01:32;17.20;;;7.72;;
79308;SDS011;68767;53.078;7.386;2023-08-12T03:03:59;14.88;;;7.22;;
79308;SDS011;68767;53.078;7.386;2023-08-12T03:06:26;17.23;;;6.85;;
79308;SDS011;68767;53.078;7.386;2023-08-12T03:08:53;15.13;;;6.78;;
79308;SDS011;68767;53.078;7.386;2023-08-12T03:11:20;12.73;;;6.95;;
79308;SDS011;68767;53.078;7.386;2023-08-12T03:13:47;13.38;;;6.32;;
79308;SDS011;68767;53.078;7.386;2023-08-12T03:16:14;15.88;;;7.35;;
79308;SDS011;68767;53.078;7.386;2023-08-12T03:18:44;21.48;;;7.57;;
79308;SDS011;68767;53.078;7.386;2023-08-12T03:21:11;16.15;;;8.23;;
79308;SDS011;68767;53.078;7.386;2023-08-12T03:23:39;14.63;;;7.72;;
79308;SDS011;68767;53.078;7.386;2023-08-12T03:26:09;18.45;;;8.25;;
79308;SDS011;68767;53.078;7.386;2023-08-12T03:28:39;16.00;;;7.28;;
79308;SDS011;68767;53.078;7.386;2023-08-12T03:31:08;19.10;;;9.73;;
79308;SDS011;68767;53.078;7.386;2023-08-12T03:33:35;15.93;;;8.40;;
79308;SDS011;68767;53.078;7.386;2023-08-12T03:36:03;16.90;;;8.27;;
79308;SDS011;68767;53.078;7.386;2023-08-12T03:38:30;18.58;;;8.35;;
79308;SDS011;68767;53.078;7.386;2023-08-12T03:40:58;19.90;;;7.95;;
79308;SDS011;68767;53.078;7.386;2023-08-12T03:43:24;21.38;;;8.82;;
79308;SDS011;68767;53.078;7.386;2023-08-12T03:45:52;18.30;;;8.27;;
79308;SDS011;68767;53.078;7.386;2023-08-12T03:48:19;15.98;;;8.05;;
79308;SDS011;68767;53.078;7.386;2023-08-12T03:50:47;16.90;;;8.57;;
79308;SDS011;68767;53.078;7.386;2023-08-12T03:53:14;22.23;;;10.27;;
79308;SDS011;68767;53.078;7.386;2023-08-12T03:55:41;21.73;;;9.50;;
79308;SDS011;68767;53.078;7.386;2023-08-12T03:58:11;26.13;;;9.68;;
79308;SDS011;68767;53.078;7.386;2023-08-12T04:00:41;23.75;;;10.10;;
79308;SDS011;68767;53.078;7.386;2023-08-12T04:03:11;19.75;;;8.85;;
79308;SDS011;68767;53.078;7.386;2023-08-12T04:05:46;20.17;;;9.65;;
79308;SDS011;68767;53.078;7.386;2023-08-12T04:08:20;18.27;;;9.30;;
79308;SDS011;68767;53.078;7.386;2023-08-12T04:10:49;21.08;;;9.77;;
79308;SDS011;68767;53.078;7.386;2023-08-12T04:13:17;19.70;;;9.65;;
79308;SDS011;68767;53.078;7.386;2023-08-12T04:15:47;23.10;;;10.40;;
79308;SDS011;68767;53.078;7.386;2023-08-12T04:18:16;21.08;;;10.07;;
79308;SDS011;68767;53.078;7.386;2023-08-12T04:20:45;18.73;;;10.02;;
79308;SDS011;68767;53.078;7.386;2023-08-12T04:23:13;21.52;;;11.02;;
79308;SDS011;68767;53.078;7.386;2023-08-12T04:25:42;19.98;;;10.23;;
79308;SDS011;68767;53.078;7.386;2023-08-12T04:28:13;22.38;;;9.40;;
79308;SDS011;68767;53.078;7.386;2023-08-12T04:30:44;28.27;;;11.20;;
79308;SDS011;68767;53.078;7.386;2023-08-12T04:33:14;25.98;;;11.15;;
79308;SDS011;68767;53.078;7.386;2023-08-12T04:35:41;25.15;;;11.73;;
79308;SDS011;68767;53.078;7.386;2023-08-12T04:38:10;27.90;;;12.18;;
79308;SDS011;68767;53.078;7.386;2023-08-12T04:40:39;21.27;;;10.43;;
79308;SDS011;68767;53.078;7.386;2023-08-12T04:43:08;22.83;;;11.93;;
79308;SDS011;68767;53.078;7.386;2023-08-12T04:45:35;24.17;;;10.45;;
79308;SDS011;68767;53.078;7.386;2023-08-12T04:48:03;26.48;;;10.98;;
79308;SDS011;68767;53.078;7.386;2023-08-12T04:50:45;25.60;;;11.23;;
79308;SDS011;68767;53.078;7.386;2023-08-12T04:53:23;22.42;;;10.98;;
79308;SDS011;68767;53.078;7.386;2023-08-12T04:55:52;22.60;;;10.95;;
79308;SDS011;68767;53.078;7.386;2023-08-12T04:58:20;24.73;;;11.32;;
79308;SDS011;68767;53.078;7.386;2023-08-12T05:00:48;18.52;;;9.30;;
79308;SDS011;68767;53.078;7.386;2023-08-12T05:03:15;24.48;;;11.25;;
79308;SDS011;68767;53.078;7.386;2023-08-12T05:05:43;23.85;;;11.65;;
79308;SDS011;68767;53.078;7.386;2023-08-12T05:08:14;23.38;;;12.13;;
79308;SDS011;68767;53.078;7.386;2023-08-12T05:10:42;23.75;;;11.52;;
79308;SDS011;68767;53.078;7.386;2023-08-12T05:13:09;24.50;;;12.43;;
79308;SDS011;68767;53.078;7.386;2023-08-12T05:15:36;24.17;;;12.85;;
79308;SDS011;68767;53.078;7.386;2023-08-12T05:18:04;26.50;;;12.20;;
79308;SDS011;68767;53.078;7.386;2023-08-12T05:20:31;23.63;;;11.85;;
79308;SDS011;68767;53.078;7.386;2023-08-12T05:22:58;27.48;;;10.88;;
79308;SDS011;68767;53.078;7.386;2023-08-12T05:25:27;22.95;;;11.75;;
79308;SDS011;68767;53.078;7.386;2023-08-12T05:27:54;25.52;;;12.77;;
79308;SDS011;68767;53.078;7.386;2023-08-12T05:30:20;21.33;;;11.82;;
79308;SDS011;68767;53.078;7.386;2023-08-12T05:32:47;24.42;;;11.57;;
79308;SDS011;68767;53.078;7.386;2023-08-12T05:35:14;24.25;;;11.80;;
79308;SDS011;68767;53.078;7.386;2023-08-12T05:37:42;21.73;;;10.80;;
79308;SDS011;68767;53.078;7.386;2023-08-12T05:40:09;23.02;;;12.63;;
79308;SDS011;68767;53.078;7.386;2023-08-12T05:42:36;24.25;;;11.27;;
79308;SDS011;68767;53.078;7.386;2023-08-12T05:45:04;27.48;;;11.82;;
79308;SDS011;68767;53.078;7.386;2023-08-12T05:47:33;23.60;;;11.95;;
79308;SDS011;68767;53.078;7.386;2023-08-12T05:50:00;22.33;;;12.02;;
79308;SDS011;68767;53.078;7.386;2023-08-12T05:52:27;23.17;;;11.88;;
79308;SDS011;68767;53.078;7.386;2023-08-12T05:54:54;25.02;;;11.75;;
79308;SDS011;68767;53.078;7.386;2023-08-12T05:57:21;21.60;;;11.00;;
79308;SDS011;68767;53.078;7.386;2023-08-12T05:59:48;19.60;;;11.18;;
79308;SDS011;68767;53.078;7.386;2023-08-12T06:02:15;27.00;;;11.68;;
79308;SDS011;68767;53.078;7.386;2023-08-12T06:04:42;28.80;;;11.93;;
79308;SDS011;68767;53.078;7.386;2023-08-12T06:07:09;35.05;;;13.88;;
79308;SDS011;68767;53.078;7.386;2023-08-12T06:09:36;28.60;;;13.80;;
79308;SDS011;68767;53.078;7.386;2023-08-12T06:12:03;27.60;;;13.38;;
79308;SDS011;68767;53.078;7.386;2023-08-12T06:14:30;27.85;;;13.80;;
79308;SDS011;68767;53.078;7.386;2023-08-12T06:16:58;28.77;;;15.23;;
79308;SDS011;68767;53.078;7.386;2023-08-12T06:19:25;30.35;;;15.00;;
79308;SDS011;68767;53.078;7.386;2023-08-12T06:21:52;28.67;;;13.63;;
79308;SDS011;68767;53.078;7.386;2023-08-12T06:24:18;28.67;;;14.18;;
79308;SDS011;68767;53.078;7.386;2023-08-12T06:26:45;30.95;;;14.23;;
79308;SDS011;68767;53.078;7.386;2023-08-12T06:29:12;29.98;;;14.55;;
79308;SDS011;68767;53.078;7.386;2023-08-12T06:31:39;30.55;;;15.48;;
79308;SDS011;68767;53.078;7.386;2023-08-12T06:34:06;32.55;;;16.08;;
79308;SDS011;68767;53.078;7.386;2023-08-12T06:36:33;29.05;;;15.15;;
79308;SDS011;68767;53.078;7.386;2023-08-12T06:39:00;28.20;;;14.40;;
79308;SDS011;68767;53.078;7.386;2023-08-12T06:41:27;27.38;;;14.65;;
79308;SDS011;68767;53.078;7.386;2023-08-12T06:43:54;30.02;;;15.65;;
79308;SDS011;68767;53.078;7.386;2023-08-12T06:46:21;28.10;;;13.20;;
79308;SDS011;68767;53.078;7.386;2023-08-12T06:48:48;25.83;;;15.00;;
79308;SDS011;68767;53.078;7.386;2023-08-12T06:51:15;28.52;;;14.55;;
79308;SDS011;68767;53.078;7.386;2023-08-12T06:53:42;25.38;;;13.70;;
79308;SDS011;68767;53.078;7.386;2023-08-12T06:56:09;28.88;;;15.18;;
79308;SDS011;68767;53.078;7.386;2023-08-12T06:58:36;32.70;;;16.00;;
79308;SDS011;68767;53.078;7.386;2023-08-12T07:01:03;26.30;;;15.73;;
79308;SDS011;68767;53.078;7.386;2023-08-12T07:03:30;31.95;;;16.58;;
79308;SDS011;68767;53.078;7.386;2023-08-12T07:05:57;28.88;;;16.52;;
79308;SDS011;68767;53.078;7.386;2023-08-12T07:08:24;36.42;;;17.23;;
79308;SDS011;68767;53.078;7.386;2023-08-12T07:10:51;38.28;;;17.63;;
79308;SDS011;68767;53.078;7.386;2023-08-12T07:13:19;37.45;;;20.17;;
79308;SDS011;68767;53.078;7.386;2023-08-12T07:15:46;37.00;;;18.20;;
79308;SDS011;68767;53.078;7.386;2023-08-12T07:18:13;42.10;;;20.13;;
79308;SDS011;68767;53.078;7.386;2023-08-12T07:20:40;38.03;;;20.10;;
79308;SDS011;68767;53.078;7.386;2023-08-12T07:23:07;48.25;;;24.90;;
79308;SDS011;68767;53.078;7.386;2023-08-12T07:25:33;39.20;;;20.60;;
79308;SDS011;68767;53.078;7.386;2023-08-12T07:28:00;41.63;;;20.13;;
79308;SDS011;68767;53.078;7.386;2023-08-12T07:30:27;39.38;;;22.35;;
79308;SDS011;68767;53.078;7.386;2023-08-12T07:32:54;38.55;;;21.20;;
79308;SDS011;68767;53.078;7.386;2023-08-12T07:35:21;37.20;;;20.63;;
79308;SDS011;68767;53.078;7.386;2023-08-12T07:37:48;37.30;;;21.45;;
79308;SDS011;68767;53.078;7.386;2023-08-12T07:40:15;36.67;;;20.60;;
79308;SDS011;68767;53.078;7.386;2023-08-12T07:42:42;34.42;;;21.42;;
79308;SDS011;68767;53.078;7.386;2023-08-12T07:45:09;37.58;;;21.25;;
79308;SDS011;68767;53.078;7.386;2023-08-12T07:47:36;32.38;;;18.75;;
79308;SDS011;68767;53.078;7.386;2023-08-12T07:52:33;32.78;;;17.85;;
79308;SDS011;68767;53.078;7.386;2023-08-12T07:55:00;30.67;;;17.65;;
79308;SDS011;68767;53.078;7.386;2023-08-12T07:57:27;34.15;;;19.17;;
79308;SDS011;68767;53.078;7.386;2023-08-12T07:59:54;33.00;;;18.20;;
79308;SDS011;68767;53.078;7.386;2023-08-12T08:02:21;34.03;;;19.23;;
79308;SDS011;68767;53.078;7.386;2023-08-12T08:04:48;29.40;;;18.67;;
79308;SDS011;68767;53.078;7.386;2023-08-12T08:07:16;36.10;;;18.52;;
79308;SDS011;68767;53.078;7.386;2023-08-12T08:09:43;32.88;;;19.58;;
79308;SDS011;68767;53.078;7.386;2023-08-12T08:12:10;35.28;;;19.17;;
79308;SDS011;68767;53.078;7.386;2023-08-12T08:14:38;38.28;;;21.30;;
79308;SDS011;68767;53.078;7.386;2023-08-12T08:17:04;31.60;;;19.55;;
79308;SDS011;68767;53.078;7.386;2023-08-12T08:19:32;36.67;;;22.90;;
79308;SDS011;68767;53.078;7.386;2023-08-12T08:21:58;41.22;;;21.25;;
79308;SDS011;68767;53.078;7.386;2023-08-12T08:24:25;37.08;;;23.48;;
79308;SDS011;68767;53.078;7.386;2023-08-12T08:26:53;48.40;;;24.90;;
79308;SDS011;68767;53.078;7.386;2023-08-12T08:29:21;48.33;;;24.02;;
79308;SDS011;68767;53.078;7.386;2023-08-12T08:31:48;45.22;;;26.30;;
79308;SDS011;68767;53.078;7.386;2023-08-12T08:34:15;47.53;;;24.63;;
79308;SDS011;68767;53.078;7.386;2023-08-12T08:36:42;53.60;;;28.90;;
79308;SDS011;68767;53.078;7.386;2023-08-12T08:39:09;51.65;;;28.70;;
79308;SDS011;68767;53.078;7.386;2023-08-12T08:41:40;51.35;;;28.63;;
79308;SDS011;68767;53.078;7.386;2023-08-12T08:44:08;58.95;;;30.70;;
79308;SDS011;68767;53.078;7.386;2023-08-12T08:46:35;55.45;;;29.35;;
79308;SDS011;68767;53.078;7.386;2023-08-12T08:49:03;60.95;;;32.00;;
79308;SDS011;68767;53.078;7.386;2023-08-12T08:51:31;63.13;;;32.33;;
79308;SDS011;68767;53.078;7.386;2023-08-12T08:53:59;64.70;;;31.67;;
79308;SDS011;68767;53.078;7.386;2023-08-12T08:56:31;60.13;;;29.90;;
79308;SDS011;68767;53.078;7.386;2023-08-12T08:59:07;64.47;;;32.17;;
79308;SDS011;68767;53.078;7.386;2023-08-12T09:01:34;61.40;;;29.02;;
79308;SDS011;68767;53.078;7.386;2023-08-12T09:04:03;59.40;;;31.83;;
79308;SDS011;68767;53.078;7.386;2023-08-12T09:06:31;56.78;;;28.77;;
79308;SDS011;68767;53.078;7.386;2023-08-12T09:08:59;62.83;;;32.03;;
79308;SDS011;68767;53.078;7.386;2023-08-12T09:11:27;60.55;;;34.03;;
79308;SDS011;68767;53.078;7.386;2023-08-12T09:13:54;61.03;;;32.00;;
79308;SDS011;68767;53.078;7.386;2023-08-12T09:16:21;64.05;;;32.33;;
79308;SDS011;68767;53.078;7.386;2023-08-12T09:18:53;58.88;;;30.90;;
79308;SDS011;68767;53.078;7.386;2023-08-12T09:21:21;57.78;;;30.38;;
79308;SDS011;68767;53.078;7.386;2023-08-12T09:23:48;57.42;;;31.90;;
79308;SDS011;68767;53.078;7.386;2023-08-12T09:26:17;55.10;;;29.35;;
79308;SDS011;68767;53.078;7.386;2023-08-12T09:28:45;51.00;;;28.80;;
79308;SDS011;68767;53.078;7.386;2023-08-12T09:31:25;59.03;;;29.40;;
79308;SDS011;68767;53.078;7.386;2023-08-12T09:36:39;43.58;;;24.52;;
79308;SDS011;68767;53.078;7.386;2023-08-12T09:39:07;44.97;;;26.23;;
79308;SDS011;68767;53.078;7.386;2023-08-12T09:41:37;49.00;;;24.00;;
79308;SDS011;68767;53.078;7.386;2023-08-12T09:44:06;50.90;;;27.42;;
79308;SDS011;68767;53.078;7.386;2023-08-12T09:46:33;54.28;;;26.20;;
79308;SDS011;68767;53.078;7.386;2023-08-12T09:49:00;37.60;;;24.13;;
79308;SDS011;68767;53.078;7.386;2023-08-12T09:51:27;38.08;;;20.70;;
79308;SDS011;68767;53.078;7.386;2023-08-12T09:54:01;33.58;;;17.92;;
79308;SDS011;68767;53.078;7.386;2023-08-12T09:56:29;38.85;;;22.33;;
79308;SDS011;68767;53.078;7.386;2023-08-12T09:59:01;40.00;;;21.52;;
79308;SDS011;68767;53.078;7.386;2023-08-12T10:01:33;46.42;;;23.88;;
79308;SDS011;68767;53.078;7.386;2023-08-12T10:04:01;42.67;;;21.02;;
79308;SDS011;68767;53.078;7.386;2023-08-12T10:06:36;51.03;;;24.50;;
79308;SDS011;68767;53.078;7.386;2023-08-12T10:09:05;42.00;;;22.77;;
79308;SDS011;68767;53.078;7.386;2023-08-12T10:11:35;40.95;;;22.05;;
79308;SDS011;68767;53.078;7.386;2023-08-12T10:14:03;44.53;;;21.23;;
79308;SDS011;68767;53.078;7.386;2023-08-12T10:16:30;36.42;;;19.15;;
79308;SDS011;68767;53.078;7.386;2023-08-12T10:18:59;37.63;;;20.60;;
79308;SDS011;68767;53.078;7.386;2023-08-12T10:21:27;38.78;;;19.75;;
79308;SDS011;68767;53.078;7.386;2023-08-12T10:23:55;48.80;;;18.20;;
79308;SDS011;68767;53.078;7.386;2023-08-12T10:26:25;37.97;;;19.33;;
79308;SDS011;68767;53.078;7.386;2023-08-12T10:28:52;44.55;;;20.92;;
79308;SDS011;68767;53.078;7.386;2023-08-12T10:31:20;27.13;;;14.40;;
79308;SDS011;68767;53.078;7.386;2023-08-12T10:33:47;26.02;;;13.80;;
79308;SDS011;68767;53.078;7.386;2023-08-12T10:36:16;21.92;;;12.82;;
79308;SDS011;68767;53.078;7.386;2023-08-12T10:38:45;24.50;;;14.00;;
79308;SDS011;68767;53.078;7.386;2023-08-12T10:41:22;20.92;;;12.02;;
79308;SDS011;68767;53.078;7.386;2023-08-12T10:46:31;20.92;;;10.25;;
79308;SDS011;68767;53.078;7.386;2023-08-12T10:49:02;27.08;;;10.43;;
79308;SDS011;68767;53.078;7.386;2023-08-12T10:54:33;16.48;;;9.10;;
79308;SDS011;68767;53.078;7.386;2023-08-12T10:57:06;26.05;;;9.38;;
79308;SDS011;68767;53.078;7.386;2023-08-12T11:02:21;21.15;;;9.05;;
79308;SDS011;68767;53.078;7.386;2023-08-12T11:04:53;18.67;;;8.63;;
79308;SDS011;68767;53.078;7.386;2023-08-12T11:07:44;13.82;;;8.35;;
79308;SDS011;68767;53.078;7.386;2023-08-12T11:10:32;12.45;;;7.72;;
79308;SDS011;68767;53.078;7.386;2023-08-12T11:13:01;12.60;;;6.55;;
79308;SDS011;68767;53.078;7.386;2023-08-12T11:18:04;14.25;;;6.82;;
79308;SDS011;68767;53.078;7.386;2023-08-12T11:20:33;16.67;;;7.63;;
79308;SDS011;68767;53.078;7.386;2023-08-12T11:23:02;17.65;;;7.07;;
79308;SDS011;68767;53.078;7.386;2023-08-12T11:25:31;13.75;;;7.93;;
79308;SDS011;68767;53.078;7.386;2023-08-12T11:27:59;13.70;;;7.70;;
79308;SDS011;68767;53.078;7.386;2023-08-12T11:30:26;10.05;;;5.70;;
79308;SDS011;68767;53.078;7.386;2023-08-12T11:32:58;14.95;;;6.45;;
79308;SDS011;68767;53.078;7.386;2023-08-12T11:35:25;25.02;;;7.32;;
79308;SDS011;68767;53.078;7.386;2023-08-12T11:37:53;15.77;;;7.50;;
79308;SDS011;68767;53.078;7.386;2023-08-12T11:40:23;21.42;;;8.02;;
79308;SDS011;68767;53.078;7.386;2023-08-12T11:42:51;16.88;;;7.00;;
79308;SDS011;68767;53.078;7.386;2023-08-12T11:45:20;13.63;;;6.72;;
79308;SDS011;68767;53.078;7.386;2023-08-12T11:47:48;25.25;;;7.35;;
79308;SDS011;68767;53.078;7.386;2023-08-12T11:50:24;26.92;;;7.80;;
79308;SDS011;68767;53.078;7.386;2023-08-12T11:52:53;27.27;;;7.68;;
79308;SDS011;68767;53.078;7.386;2023-08-12T11:55:22;13.45;;;7.80;;
79308;SDS011;68767;53.078;7.386;2023-08-12T11:57:50;13.90;;;8.25;;
79308;SDS011;68767;53.078;7.386;2023-08-12T12:00:18;10.93;;;6.32;;
79308;SDS011;68767;53.078;7.386;2023-08-12T12:02:54;16.25;;;6.32;;
79308;SDS011;68767;53.078;7.386;2023-08-12T12:05:22;12.05;;;5.80;;
79308;SDS011;68767;53.078;7.386;2023-08-12T12:07:52;9.65;;;5.55;;
79308;SDS011;68767;53.078;7.386;2023-08-12T12:12:59;8.52;;;5.38;;
79308;SDS011;68767;53.078;7.386;2023-08-12T12:15:27;10.35;;;4.85;;
79308;SDS011;68767;53.078;7.386;2023-08-12T12:17:54;9.05;;;4.40;;
79308;SDS011;68767;53.078;7.386;2023-08-12T12:20:21;6.45;;;3.78;;
79308;SDS011;68767;53.078;7.386;2023-08-12T12:22:48;5.50;;;3.50;;
79308;SDS011;68767;53.078;7.386;2023-08-12T12:25:16;5.65;;;3.20;;
79308;SDS011;68767;53.078;7.386;2023-08-12T12:27:46;6.45;;;3.78;;
79308;SDS011;68767;53.078;7.386;2023-08-12T12:30:14;6.18;;;4.10;;
79308;SDS011;68767;53.078;7.386;2023-08-12T12:32:42;7.18;;;3.90;;
79308;SDS011;68767;53.078;7.386;2023-08-12T12:35:10;7.32;;;4.10;;
79308;SDS011;68767;53.078;7.386;2023-08-12T12:37:37;5.85;;;4.00;;
79308;SDS011;68767;53.078;7.386;2023-08-12T12:40:05;8.25;;;3.63;;
79308;SDS011;68767;53.078;7.386;2023-08-12T12:42:33;6.03;;;4.20;;
79308;SDS011;68767;53.078;7.386;2023-08-12T12:45:01;8.88;;;3.55;;
79308;SDS011;68767;53.078;7.386;2023-08-12T12:47:28;5.90;;;3.50;;
79308;SDS011;68767;53.078;7.386;2023-08-12T12:49:55;6.50;;;3.60;;
79308;SDS011;68767;53.078;7.386;2023-08-12T12:52:22;6.55;;;3.67;;
79308;SDS011;68767;53.078;7.386;2023-08-12T12:54:49;6.90;;;4.03;;
79308;SDS011;68767;53.078;7.386;2023-08-12T12:57:16;8.18;;;4.25;;
79308;SDS011;68767;53.078;7.386;2023-08-12T12:59:43;10.45;;;4.53;;
79308;SDS011;68767;53.078;7.386;2023-08-12T13:02:10;5.93;;;3.45;;
79308;SDS011;68767;53.078;7.386;2023-08-12T13:04:37;5.97;;;3.40;;
79308;SDS011;68767;53.078;7.386;2023-08-12T13:07:04;8.30;;;3.60;;
79308;SDS011;68767;53.078;7.386;2023-08-12T13:09:31;5.57;;;3.08;;
79308;SDS011;68767;53.078;7.386;2023-08-12T13:11:58;5.80;;;2.90;;
79308;SDS011;68767;53.078;7.386;2023-08-12T13:14:25;5.13;;;3.55;;
79308;SDS011;68767;53.078;7.386;2023-08-12T13:16:53;5.90;;;3.38;;
79308;SDS011;68767;53.078;7.386;2023-08-12T13:19:19;4.78;;;2.60;;
79308;SDS011;68767;53.078;7.386;2023-08-12T13:21:46;5.20;;;2.92;;
79308;SDS011;68767;53.078;7.386;2023-08-12T13:24:13;4.13;;;2.42;;
79308;SDS011;68767;53.078;7.386;2023-08-12T13:26:41;7.68;;;2.83;;
79308;SDS011;68767;53.078;7.386;2023-08-12T13:29:08;3.78;;;2.40;;
79308;SDS011;68767;53.078;7.386;2023-08-12T13:31:35;4.20;;;2.15;;
79308;SDS011;68767;53.078;7.386;2023-08-12T13:34:03;5.00;;;2.25;;
79308;SDS011;68767;53.078;7.386;2023-08-12T13:36:30;5.75;;;2.17;;
79308;SDS011;68767;53.078;7.386;2023-08-12T13:38:57;5.30;;;3.10;;
79308;SDS011;68767;53.078;7.386;2023-08-12T13:43:54;3.67;;;1.98;;
79308;SDS011;68767;53.078;7.386;2023-08-12T13:46:21;5.43;;;2.10;;
79308;SDS011;68767;53.078;7.386;2023-08-12T13:48:48;5.13;;;2.08;;
79308;SDS011;68767;53.078;7.386;2023-08-12T13:51:14;2.63;;;1.73;;
79308;SDS011;68767;53.078;7.386;2023-08-12T13:53:41;5.30;;;2.17;;
79308;SDS011;68767;53.078;7.386;2023-08-12T13:56:08;4.82;;;2.25;;
79308;SDS011;68767;53.078;7.386;2023-08-12T13:58:35;4.65;;;2.13;;
79308;SDS011;68767;53.078;7.386;2023-08-12T14:01:02;5.18;;;2.17;;
79308;SDS011;68767;53.078;7.386;2023-08-12T14:03:29;3.47;;;2.00;;
79308;SDS011;68767;53.078;7.386;2023-08-12T14:05:57;33.13;;;4.57;;
79308;SDS011;68767;53.078;7.386;2023-08-12T14:08:24;3.58;;;1.55;;
79308;SDS011;68767;53.078;7.386;2023-08-12T14:10:51;4.18;;;1.90;;
79308;SDS011;68767;53.078;7.386;2023-08-12T14:13:18;2.92;;;1.17;;
79308;SDS011;68767;53.078;7.386;2023-08-12T14:15:45;2.65;;;1.30;;
79308;SDS011;68767;53.078;7.386;2023-08-12T14:18:12;3.65;;;1.45;;
79308;SDS011;68767;53.078;7.386;2023-08-12T14:20:39;4.97;;;1.80;;
79308;SDS011;68767;53.078;7.386;2023-08-12T14:23:05;6.13;;;1.98;;
79308;SDS011;68767;53.078;7.386;2023-08-12T14:25:32;5.82;;;1.70;;
79308;SDS011;68767;53.078;7.386;2023-08-12T14:27:59;4.72;;;1.75;;
79308;SDS011;68767;53.078;7.386;2023-08-12T14:30:26;6.07;;;1.92;;
79308;SDS011;68767;53.078;7.386;2023-08-12T14:32:53;109.93;;;6.32;;
79308;SDS011;68767;53.078;7.386;2023-08-12T14:35:21;6.43;;;1.92;;
79308;SDS011;68767;53.078;7.386;2023-08-12T14:37:48;6.53;;;2.28;;
79308;SDS011;68767;53.078;7.386;2023-08-12T14:40:15;5.40;;;1.88;;
79308;SDS011;68767;53.078;7.386;2023-08-12T14:42:42;12.23;;;2.17;;
79308;SDS011;68767;53.078;7.386;2023-08-12T14:45:09;4.80;;;2.00;;
79308;SDS011;68767;53.078;7.386;2023-08-12T14:47:36;10.07;;;2.90;;
79308;SDS011;68767;53.078;7.386;2023-08-12T14:50:03;7.00;;;2.25;;
79308;SDS011;68767;53.078;7.386;2023-08-12T14:52:31;5.47;;;2.03;;
79308;SDS011;68767;53.078;7.386;2023-08-12T14:54:57;7.03;;;2.03;;
79308;SDS011;68767;53.078;7.386;2023-08-12T14:57:24;12.48;;;2.17;;
79308;SDS011;68767;53.078;7.386;2023-08-12T14:59:52;12.90;;;2.22;;
79308;SDS011;68767;53.078;7.386;2023-08-12T15:02:22;6.93;;;1.90;;
79308;SDS011;68767;53.078;7.386;2023-08-12T15:04:49;9.70;;;2.38;;